createdAt,value
2022-08-04T00:01:57.232Z,11.18
2022-08-04T00:04:34.017Z,12.10
2022-08-04T00:07:12.224Z,11.90
2022-08-04T00:09:58.018Z,11.50
2022-08-04T00:12:31.239Z,12.90
2022-08-04T00:15:00.730Z,10.68
2022-08-04T00:17:44.786Z,10.68
2022-08-04T00:20:17.598Z,10.30
2022-08-04T00:22:47.254Z,13.48
2022-08-04T00:25:14.998Z,11.85
2022-08-04T00:27:42.166Z,10.40
2022-08-04T00:30:09.774Z,11.88
2022-08-04T00:32:40.375Z,12.38
2022-08-04T00:35:09.805Z,13.02
2022-08-04T00:37:38.678Z,12.55
2022-08-04T00:40:32.691Z,14.48
2022-08-04T00:43:13.246Z,14.05
2022-08-04T00:46:16.729Z,13.93
2022-08-04T00:48:48.393Z,11.85
2022-08-04T00:51:41.762Z,14.43
2022-08-04T00:54:22.182Z,12.88
2022-08-04T00:56:55.611Z,13.23
2022-08-04T01:02:31.997Z,11.95
2022-08-04T01:05:06.427Z,16.40
2022-08-04T01:07:54.888Z,11.43
2022-08-04T01:10:31.103Z,15.63
2022-08-04T01:13:01.395Z,14.55
2022-08-04T01:15:57.166Z,12.95
2022-08-04T01:19:00.008Z,15.25
2022-08-04T01:21:30.175Z,10.70
2022-08-04T01:24:12.253Z,16.50
2022-08-04T01:26:53.707Z,12.65
2022-08-04T01:29:43.773Z,12.63
2022-08-04T01:32:38.680Z,16.08
2022-08-04T01:35:15.437Z,11.65
2022-08-04T01:38:02.113Z,14.48
2022-08-04T01:40:46.355Z,11.05
2022-08-04T01:43:16.224Z,13.88
2022-08-04T01:45:49.551Z,13.25
2022-08-04T01:48:23.043Z,13.95
2022-08-04T01:50:53.237Z,12.82
2022-08-04T01:53:21.359Z,12.35
2022-08-04T01:55:55.339Z,13.77
2022-08-04T01:58:24.925Z,12.35
2022-08-04T02:01:07.974Z,14.40
2022-08-04T02:04:19.434Z,14.10
2022-08-04T02:06:47.250Z,11.75
2022-08-04T02:09:28.788Z,11.73
2022-08-04T02:12:05.306Z,14.38
2022-08-04T02:14:58.820Z,12.65
2022-08-04T02:17:41.520Z,13.60
2022-08-04T02:20:25.658Z,16.50
2022-08-04T02:23:04.483Z,10.55
2022-08-04T02:25:40.181Z,11.43
2022-08-04T02:28:24.219Z,9.60
2022-08-04T02:31:03.694Z,11.02
2022-08-04T02:33:41.294Z,11.65
2022-08-04T02:36:30.281Z,10.75
2022-08-04T02:39:02.034Z,12.82
2022-08-04T02:41:31.141Z,11.13
2022-08-04T02:44:04.064Z,11.10
2022-08-04T02:46:33.612Z,11.45
2022-08-04T02:49:11.861Z,10.35
2022-08-04T02:51:44.844Z,13.30
2022-08-04T02:54:15.221Z,14.05
2022-08-04T02:56:59.819Z,14.02
2022-08-04T02:59:29.147Z,12.23
2022-08-04T03:01:58.342Z,11.48
2022-08-04T03:04:28.273Z,15.23
2022-08-04T03:07:01.641Z,11.43
2022-08-04T03:09:43.972Z,11.10
2022-08-04T03:12:20.400Z,12.35
2022-08-04T03:15:09.534Z,15.25
2022-08-04T03:17:56.953Z,13.43
2022-08-04T03:20:52.165Z,12.02
2022-08-04T03:23:24.807Z,11.18
2022-08-04T03:26:13.669Z,13.48
2022-08-04T03:29:01.959Z,15.90
2022-08-04T03:31:56.773Z,13.52
2022-08-04T03:34:45.612Z,18.13
2022-08-04T03:37:19.286Z,20.13
2022-08-04T03:40:17.059Z,14.30
2022-08-04T03:43:58.775Z,14.20
2022-08-04T03:46:28.186Z,15.05
2022-08-04T03:49:33.779Z,10.02
2022-08-04T03:52:31.836Z,10.90
2022-08-04T03:55:16.921Z,7.65
2022-08-04T03:58:09.193Z,10.00
2022-08-04T04:00:48.759Z,12.23
2022-08-04T04:03:41.175Z,10.20
2022-08-04T04:06:31.549Z,10.07
2022-08-04T04:09:28.744Z,10.43
2022-08-04T04:12:27.125Z,15.55
2022-08-04T04:15:04.805Z,10.98
2022-08-04T04:18:19.658Z,11.93
2022-08-04T04:20:49.975Z,11.93
2022-08-04T04:23:25.982Z,8.93
2022-08-04T04:26:04.315Z,16.15
2022-08-04T04:28:46.823Z,16.00
2022-08-04T04:31:41.183Z,16.88
2022-08-04T04:34:32.229Z,14.02
2022-08-04T04:37:26.175Z,13.98
2022-08-04T04:40:09.911Z,12.07
2022-08-04T04:43:06.775Z,11.43
2022-08-04T04:45:43.078Z,13.98
2022-08-04T04:48:36.491Z,11.38
2022-08-04T04:51:21.566Z,8.75
2022-08-04T04:54:21.323Z,10.85
2022-08-04T04:57:13.694Z,12.27
2022-08-04T04:59:50.306Z,8.73
2022-08-04T05:02:32.841Z,10.07
2022-08-04T05:05:37.722Z,10.27
2022-08-04T05:08:45.551Z,10.57
2022-08-04T05:11:23.510Z,9.20
2022-08-04T05:14:34.996Z,7.53
2022-08-04T05:17:19.594Z,8.65
2022-08-04T05:19:56.124Z,9.55
2022-08-04T05:22:28.694Z,6.68
2022-08-04T05:25:05.561Z,8.23
2022-08-04T05:27:40.819Z,6.65
2022-08-04T05:30:10.187Z,7.10
2022-08-04T05:33:05.316Z,6.40
2022-08-04T05:36:16.874Z,8.38
2022-08-04T05:38:37.651Z,7.75
2022-08-04T05:41:07.491Z,5.30
2022-08-04T05:43:35.786Z,6.18
2022-08-04T05:46:04.260Z,8.07
2022-08-04T05:48:33.372Z,8.55
2022-08-04T05:51:01.661Z,4.95
2022-08-04T05:53:29.293Z,5.13
2022-08-04T05:55:59.941Z,4.18
2022-08-04T05:58:30.074Z,8.53
2022-08-04T06:01:00.799Z,5.63
2022-08-04T06:03:30.742Z,2.75
2022-08-04T06:05:59.329Z,8.18
2022-08-04T06:08:26.983Z,5.70
2022-08-04T06:10:57.607Z,4.68
2022-08-04T06:13:47.602Z,4.30
2022-08-04T06:16:30.080Z,6.40
2022-08-04T06:20:00.444Z,7.15
2022-08-04T06:21:55.211Z,7.78
2022-08-04T06:24:26.264Z,8.55
2022-08-04T06:26:55.394Z,11.05
2022-08-04T06:29:23.966Z,8.75
2022-08-04T06:32:30.488Z,15.02
2022-08-04T06:34:41.251Z,9.65
2022-08-04T06:37:09.600Z,11.82
2022-08-04T06:39:37.792Z,9.60
2022-08-04T06:42:22.125Z,7.97
2022-08-04T06:44:54.459Z,7.88
2022-08-04T06:47:24.107Z,8.05
2022-08-04T06:51:27.744Z,6.25
2022-08-04T06:52:41.435Z,8.90
2022-08-04T06:55:08.946Z,7.70
2022-08-04T06:57:36.835Z,7.90
2022-08-04T07:00:13.000Z,7.90
2022-08-04T07:02:45.830Z,7.97
2022-08-04T07:05:13.895Z,7.45
2022-08-04T07:07:57.611Z,7.93
2022-08-04T07:10:30.823Z,5.57
2022-08-04T07:12:59.594Z,6.90
2022-08-04T07:15:27.299Z,7.03
2022-08-04T07:17:55.376Z,4.65
2022-08-04T07:20:34.537Z,5.25
2022-08-04T07:23:05.573Z,5.60
2022-08-04T07:26:00.387Z,6.18
2022-08-04T07:28:27.915Z,4.43
2022-08-04T07:30:57.375Z,8.23
2022-08-04T07:33:25.543Z,5.38
2022-08-04T07:36:09.461Z,4.65
2022-08-04T07:38:48.693Z,4.72
2022-08-04T07:41:37.772Z,6.32
2022-08-04T07:44:05.595Z,6.10
2022-08-04T07:46:32.813Z,7.13
2022-08-04T07:49:04.222Z,6.68
2022-08-04T07:51:33.080Z,8.95
2022-08-04T07:54:00.923Z,10.38
2022-08-04T07:56:30.881Z,9.20
2022-08-04T07:58:58.475Z,8.13
2022-08-04T08:01:26.069Z,8.65
2022-08-04T08:03:57.938Z,6.72
2022-08-04T08:06:32.399Z,6.38
2022-08-04T08:09:02.293Z,6.72
2022-08-04T08:12:35.823Z,4.85
2022-08-04T08:14:36.686Z,3.95
2022-08-04T08:17:06.170Z,9.60
2022-08-04T08:19:34.224Z,7.50
2022-08-04T08:22:02.307Z,5.43
2022-08-04T08:24:31.448Z,6.72
2022-08-04T08:26:59.498Z,4.70
2022-08-04T08:29:27.273Z,5.13
2022-08-04T08:31:55.396Z,7.00
2022-08-04T08:34:28.792Z,6.00
2022-08-04T08:37:03.012Z,5.18
2022-08-04T08:39:39.723Z,5.22
2022-08-04T08:42:34.880Z,7.18
2022-08-04T08:45:17.800Z,7.65
2022-08-04T08:48:06.608Z,3.65
2022-08-04T08:51:00.628Z,7.03
2022-08-04T08:54:02.775Z,7.18
2022-08-04T08:56:35.857Z,6.30
2022-08-04T08:59:06.426Z,7.28
2022-08-04T09:01:51.263Z,5.63
2022-08-04T09:04:40.428Z,5.05
2022-08-04T09:07:32.656Z,5.80
2022-08-04T09:10:09.227Z,6.32
2022-08-04T09:12:55.759Z,8.50
2022-08-04T09:15:54.429Z,6.93
2022-08-04T09:18:29.950Z,6.55
2022-08-04T09:21:25.813Z,4.07
2022-08-04T09:24:36.524Z,3.75
2022-08-04T09:27:08.338Z,4.93
2022-08-04T09:29:54.031Z,6.38
2022-08-04T09:32:39.673Z,5.43
2022-08-04T09:35:18.921Z,6.03
2022-08-04T09:37:58.921Z,6.20
2022-08-04T09:40:52.596Z,3.40
2022-08-04T09:43:59.095Z,8.10
2022-08-04T09:46:53.489Z,5.38
2022-08-04T09:49:27.157Z,6.70
2022-08-04T09:52:07.857Z,4.40
2022-08-04T09:55:09.255Z,5.50
2022-08-04T09:57:49.154Z,4.40
2022-08-04T10:00:17.688Z,7.70
2022-08-04T10:02:51.011Z,4.57
2022-08-04T10:05:55.984Z,4.47
2022-08-04T10:08:42.958Z,5.05
2022-08-04T10:11:21.466Z,4.65
2022-08-04T10:14:00.172Z,5.85
2022-08-04T10:16:30.699Z,4.15
2022-08-04T10:19:07.946Z,6.40
2022-08-04T10:22:28.797Z,4.97
2022-08-04T10:26:03.706Z,7.63
2022-08-04T10:28:15.750Z,4.65
2022-08-04T10:30:54.171Z,5.93
2022-08-04T10:33:24.559Z,3.80
2022-08-04T10:35:57.920Z,6.80
2022-08-04T10:38:33.476Z,4.93
2022-08-04T10:41:39.554Z,6.28
2022-08-04T10:44:18.212Z,8.05
2022-08-04T10:46:54.418Z,5.10
2022-08-04T10:49:37.271Z,6.88
2022-08-04T10:52:22.948Z,7.38
2022-08-04T10:54:59.350Z,3.75
2022-08-04T10:57:29.724Z,6.22
2022-08-04T11:00:00.653Z,5.35
2022-08-04T11:02:40.041Z,5.85
2022-08-04T11:05:10.369Z,3.97
2022-08-04T11:07:41.154Z,6.75
2022-08-04T11:10:09.729Z,8.27
2022-08-04T11:12:39.354Z,5.30
2022-08-04T11:15:20.840Z,5.78
2022-08-04T11:18:00.802Z,7.80
2022-08-04T11:20:36.294Z,6.63
2022-08-04T11:23:15.764Z,3.35
2022-08-04T11:26:03.843Z,6.80
2022-08-04T11:29:03.293Z,8.05
2022-08-04T11:31:35.469Z,5.35
2022-08-04T11:34:15.021Z,4.63
2022-08-04T11:37:05.270Z,6.05
2022-08-04T11:39:59.167Z,7.78
2022-08-04T11:42:36.815Z,6.03
2022-08-04T11:45:19.814Z,6.15
2022-08-04T11:48:06.021Z,6.60
2022-08-04T11:50:53.578Z,5.78
2022-08-04T11:53:25.573Z,6.40
2022-08-04T11:56:08.258Z,7.93
2022-08-04T11:58:38.037Z,8.07
2022-08-04T12:01:36.151Z,7.40
2022-08-04T12:04:18.791Z,7.70
2022-08-04T12:07:30.087Z,6.75
2022-08-04T12:10:00.582Z,8.55
2022-08-04T12:13:01.913Z,5.85
2022-08-04T12:15:40.727Z,6.00
2022-08-04T12:18:27.562Z,11.13
2022-08-04T12:21:00.985Z,7.15
2022-08-04T12:23:41.486Z,8.15
2022-08-04T12:26:14.414Z,11.15
2022-08-04T12:29:08.991Z,7.55
2022-08-04T12:31:47.039Z,7.87
2022-08-04T12:34:29.968Z,8.40
2022-08-04T12:37:07.307Z,10.52
2022-08-04T12:40:28.230Z,5.28
2022-08-04T12:42:36.575Z,5.38
2022-08-04T12:45:11.413Z,5.68
2022-08-04T12:47:40.413Z,9.35
2022-08-04T12:50:10.621Z,5.13
2022-08-04T12:53:01.531Z,5.95
2022-08-04T12:55:32.819Z,6.18
2022-08-04T12:58:03.039Z,9.07
2022-08-04T13:00:41.407Z,7.95
2022-08-04T13:03:13.084Z,9.27
2022-08-04T13:05:42.108Z,8.00
2022-08-04T13:08:11.600Z,6.13
2022-08-04T13:10:41.806Z,7.55
2022-08-04T13:13:17.031Z,9.38
2022-08-04T13:15:56.571Z,10.27
2022-08-04T13:18:30.033Z,9.93
2022-08-04T13:21:20.366Z,10.95
2022-08-04T13:24:10.705Z,9.23
2022-08-04T13:26:55.474Z,9.90
2022-08-04T13:29:59.430Z,6.07
2022-08-04T13:32:25.248Z,10.57
2022-08-04T13:34:56.201Z,8.57
2022-08-04T13:37:27.132Z,11.25
2022-08-04T13:39:57.395Z,7.80
2022-08-04T13:42:27.039Z,11.40
2022-08-04T13:44:59.782Z,7.60
2022-08-04T13:47:31.435Z,9.10
2022-08-04T13:50:19.517Z,13.70
2022-08-04T13:52:47.635Z,6.82
2022-08-04T13:55:22.589Z,11.68
2022-08-04T13:57:54.716Z,10.90
2022-08-04T14:00:30.241Z,6.85
2022-08-04T14:03:23.612Z,9.73
2022-08-04T14:06:15.784Z,8.10
2022-08-04T14:08:48.995Z,9.00
2022-08-04T14:12:04.920Z,9.25
2022-08-04T14:14:27.893Z,7.13
2022-08-04T14:17:06.370Z,10.05
2022-08-04T14:19:48.922Z,13.90
2022-08-04T14:22:28.179Z,11.55
2022-08-04T14:25:00.906Z,11.63
2022-08-04T14:30:20.406Z,8.98
2022-08-04T14:33:59.635Z,7.80
2022-08-04T14:36:01.515Z,8.38
2022-08-04T14:38:54.542Z,9.98
2022-08-04T14:41:30.329Z,9.98
2022-08-04T14:44:00.773Z,11.00
2022-08-04T14:49:04.448Z,10.65
2022-08-04T14:51:53.883Z,6.07
2022-08-04T14:54:32.226Z,12.43
2022-08-04T14:57:05.510Z,10.75
2022-08-04T15:00:01.604Z,13.82
2022-08-04T15:02:31.586Z,9.63
2022-08-04T15:06:00.011Z,10.05
2022-08-04T15:07:47.607Z,10.52
2022-08-04T15:10:14.860Z,13.13
2022-08-04T15:12:42.290Z,7.43
2022-08-04T15:15:35.269Z,7.80
2022-08-04T15:17:57.017Z,8.70
2022-08-04T15:20:24.728Z,9.35
2022-08-04T15:22:51.838Z,15.68
2022-08-04T15:25:19.317Z,10.18
2022-08-04T15:27:50.331Z,7.95
2022-08-04T15:30:18.914Z,13.65
2022-08-04T15:32:56.379Z,11.35
2022-08-04T15:35:32.094Z,10.77
2022-08-04T15:38:18.512Z,7.78
2022-08-04T15:41:08.127Z,10.77
2022-08-04T15:44:13.793Z,11.80
2022-08-04T15:46:47.734Z,12.52
2022-08-04T15:49:25.002Z,13.85
2022-08-04T15:52:03.557Z,14.57
2022-08-04T15:54:39.716Z,15.57
2022-08-04T15:57:10.518Z,15.65
2022-08-04T16:00:06.323Z,15.18
2022-08-04T16:02:35.098Z,9.70
2022-08-04T16:05:18.419Z,9.77
2022-08-04T16:07:57.806Z,8.60
2022-08-04T16:10:30.966Z,8.32
2022-08-04T16:13:12.687Z,10.90
2022-08-04T16:15:41.087Z,7.72
2022-08-04T16:18:14.537Z,9.43
2022-08-04T16:21:01.364Z,8.60
2022-08-04T16:24:00.781Z,7.93
2022-08-04T16:26:45.089Z,9.45
2022-08-04T16:29:31.911Z,11.20
2022-08-04T16:32:04.959Z,9.57
2022-08-04T16:34:49.261Z,12.52
2022-08-04T16:37:23.647Z,12.32
2022-08-04T16:40:35.114Z,9.18
2022-08-04T16:43:07.311Z,9.60
2022-08-04T16:45:59.527Z,7.05
2022-08-04T16:48:33.351Z,7.03
2022-08-04T16:51:08.397Z,8.98
2022-08-04T16:54:02.998Z,10.82
2022-08-04T16:56:33.591Z,12.38
2022-08-04T16:59:13.054Z,8.18
2022-08-04T17:01:49.459Z,9.85
2022-08-04T17:04:17.050Z,10.07
2022-08-04T17:06:45.666Z,13.80
2022-08-04T17:09:14.984Z,10.65
2022-08-04T17:11:47.840Z,8.38
2022-08-04T17:14:22.309Z,10.75
2022-08-04T17:16:50.338Z,8.23
2022-08-04T17:19:24.040Z,12.70
2022-08-04T17:22:04.549Z,8.18
2022-08-04T17:24:35.447Z,10.52
2022-08-04T17:27:04.118Z,6.88
2022-08-04T17:29:50.481Z,13.07
2022-08-04T17:32:19.895Z,10.48
2022-08-04T17:34:49.062Z,7.65
2022-08-04T17:37:40.284Z,9.32
2022-08-04T17:40:22.509Z,10.52
2022-08-04T17:44:04.526Z,10.10
2022-08-04T17:46:29.089Z,10.27
2022-08-04T17:49:16.552Z,10.18
2022-08-04T17:52:04.500Z,10.90
2022-08-04T17:54:39.062Z,10.90
2022-08-04T17:57:22.427Z,11.10
2022-08-04T17:59:57.473Z,6.95
2022-08-04T18:02:34.431Z,10.38
2022-08-04T18:05:07.471Z,7.85
2022-08-04T18:08:35.124Z,11.57
2022-08-04T18:10:55.577Z,8.85
2022-08-04T18:13:28.274Z,9.65
2022-08-04T18:16:14.554Z,7.15
2022-08-04T18:19:08.835Z,10.15
2022-08-04T18:21:45.693Z,10.35
2022-08-04T18:24:34.214Z,10.50
2022-08-04T18:27:06.397Z,9.90
2022-08-04T18:29:39.054Z,11.32
2022-08-04T18:32:08.891Z,12.30
2022-08-04T18:34:54.708Z,12.25
2022-08-04T18:38:03.831Z,8.52
2022-08-04T18:40:30.134Z,8.98
2022-08-04T18:43:00.002Z,12.52
2022-08-04T18:45:33.956Z,8.73
2022-08-04T18:48:04.292Z,9.50
2022-08-04T18:51:09.462Z,10.38
2022-08-04T18:53:35.816Z,12.73
2022-08-04T18:56:20.055Z,9.95
2022-08-04T18:58:59.886Z,8.93
2022-08-04T19:04:33.555Z,12.52
2022-08-04T19:07:23.577Z,9.60
2022-08-04T19:09:52.222Z,8.02
2022-08-04T19:12:27.683Z,12.25
2022-08-04T19:14:58.405Z,10.70
2022-08-04T19:17:52.492Z,11.45
2022-08-04T19:20:24.574Z,8.18
2022-08-04T19:24:27.809Z,13.13
2022-08-04T19:25:59.680Z,11.77
2022-08-04T19:28:34.242Z,13.13
2022-08-04T19:31:07.903Z,14.02
2022-08-04T19:33:58.663Z,10.18
2022-08-04T19:36:27.942Z,11.25
2022-08-04T19:38:58.154Z,10.80
2022-08-04T19:41:26.987Z,14.23
2022-08-04T19:43:54.808Z,10.95
2022-08-04T19:46:24.740Z,10.18
2022-08-04T19:48:59.542Z,11.75
2022-08-04T19:51:30.302Z,12.23
2022-08-04T19:54:02.740Z,12.15
2022-08-04T19:56:40.033Z,12.05
2022-08-04T19:59:09.648Z,11.57
2022-08-04T20:04:24.707Z,14.52
2022-08-04T20:06:53.009Z,13.32
2022-08-04T20:09:25.370Z,11.70
2022-08-04T20:11:57.745Z,12.60
2022-08-04T20:14:31.727Z,15.25
2022-08-04T20:17:10.540Z,12.07
2022-08-04T20:19:38.712Z,15.27
2022-08-04T20:22:08.553Z,13.52
2022-08-04T20:25:01.077Z,11.27
2022-08-04T20:27:59.266Z,12.63
2022-08-04T20:30:28.340Z,12.45
2022-08-04T20:32:56.707Z,12.75
2022-08-04T20:35:23.729Z,12.10
2022-08-04T20:37:55.272Z,17.73
2022-08-04T20:40:28.265Z,15.82
2022-08-04T20:42:58.123Z,12.93
2022-08-04T20:45:56.846Z,13.93
2022-08-04T20:48:13.193Z,18.48
2022-08-04T20:50:40.357Z,16.02
2022-08-04T20:53:16.502Z,12.75
2022-08-04T20:55:54.970Z,16.70
2022-08-04T20:58:27.332Z,14.00
2022-08-04T21:03:38.375Z,12.85
2022-08-04T21:06:10.228Z,18.17
2022-08-04T21:08:37.427Z,18.52
2022-08-04T21:11:06.895Z,13.68
2022-08-04T21:13:50.707Z,14.00
2022-08-04T21:19:13.031Z,14.63
2022-08-04T21:21:41.361Z,19.45
2022-08-04T21:24:09.965Z,13.55
2022-08-04T21:26:42.800Z,19.65
2022-08-04T21:29:13.794Z,12.10
2022-08-04T21:31:50.933Z,11.65
2022-08-04T21:34:38.124Z,12.98
2022-08-04T21:37:10.052Z,14.00
2022-08-04T21:39:50.704Z,12.05
2022-08-04T21:42:29.344Z,12.45
2022-08-04T21:44:58.217Z,12.80
2022-08-04T21:47:25.394Z,13.13
2022-08-04T21:49:56.564Z,14.68
2022-08-04T21:52:25.045Z,13.55
2022-08-04T21:54:54.085Z,13.13
2022-08-04T21:57:25.117Z,15.15
2022-08-04T21:59:53.150Z,13.27
2022-08-04T22:02:20.311Z,16.02
2022-08-04T22:04:47.423Z,13.80
2022-08-04T22:07:16.491Z,13.20
2022-08-04T22:09:59.951Z,11.57
2022-08-04T22:12:29.836Z,12.80
2022-08-04T22:14:59.715Z,13.68
2022-08-04T22:17:29.454Z,12.52
2022-08-04T22:20:04.237Z,12.60
2022-08-04T22:22:34.298Z,13.80
2022-08-04T22:25:12.480Z,12.70
2022-08-04T22:27:41.932Z,13.00
2022-08-04T22:30:17.037Z,12.38
2022-08-04T22:32:46.313Z,11.35
2022-08-04T22:35:33.363Z,14.05
2022-08-04T22:38:05.795Z,17.38
2022-08-04T22:40:33.052Z,13.45
2022-08-04T22:43:00.079Z,12.48
2022-08-04T22:45:28.955Z,13.43
2022-08-04T22:48:11.443Z,12.07
2022-08-04T22:50:38.956Z,12.00
2022-08-04T22:53:06.679Z,13.38
2022-08-04T22:56:07.543Z,12.93
2022-08-04T22:58:21.153Z,10.82
2022-08-04T23:00:58.148Z,11.75
2022-08-04T23:03:37.006Z,11.25
2022-08-04T23:06:11.087Z,11.32
2022-08-04T23:08:42.952Z,13.00
2022-08-04T23:11:13.668Z,11.95
2022-08-04T23:13:42.297Z,12.13
2022-08-04T23:16:10.000Z,11.50
2022-08-04T23:18:41.837Z,12.32
2022-08-04T23:21:10.436Z,15.32
2022-08-04T23:23:47.659Z,12.60
2022-08-04T23:26:27.666Z,11.73
2022-08-04T23:28:55.987Z,12.48
2022-08-04T23:31:23.457Z,11.52
2022-08-04T23:33:52.091Z,14.25
2022-08-04T23:36:29.517Z,13.48
2022-08-04T23:39:05.640Z,10.85
2022-08-04T23:41:54.393Z,13.48
2022-08-04T23:44:24.851Z,12.13
2022-08-04T23:47:03.795Z,11.82
2022-08-04T23:49:43.281Z,11.32
2022-08-04T23:52:27.895Z,12.45
2022-08-04T23:55:00.864Z,11.07
2022-08-04T23:57:31.406Z,12.70
